sensor_id;sensor_type;location;lat;lon;timestamp;P1;durP1;ratioP1;P2;durP2;ratioP2
7807;SDS011;3949;49.254;8.894;2023-04-07T00:00:20;10.77;;;8.87;;
7807;SDS011;3949;49.254;8.894;2023-04-07T00:02:45;9.63;;;8.40;;
7807;SDS011;3949;49.254;8.894;2023-04-07T00:05:13;8.97;;;7.90;;
7807;SDS011;3949;49.254;8.894;2023-04-07T00:07:39;9.97;;;8.50;;
7807;SDS011;3949;49.254;8.894;2023-04-07T00:10:05;9.97;;;7.97;;
7807;SDS011;3949;49.254;8.894;2023-04-07T00:12:32;10.23;;;9.20;;
7807;SDS011;3949;49.254;8.894;2023-04-07T00:14:58;10.17;;;8.80;;
7807;SDS011;3949;49.254;8.894;2023-04-07T00:17:24;11.57;;;8.97;;
7807;SDS011;3949;49.254;8.894;2023-04-07T00:19:50;9.37;;;8.13;;
7807;SDS011;3949;49.254;8.894;2023-04-07T00:22:16;10.60;;;8.97;;
7807;SDS011;3949;49.254;8.894;2023-04-07T00:24:42;10.87;;;8.40;;
7807;SDS011;3949;49.254;8.894;2023-04-07T00:27:08;8.67;;;7.87;;
7807;SDS011;3949;49.254;8.894;2023-04-07T00:29:34;9.07;;;8.17;;
7807;SDS011;3949;49.254;8.894;2023-04-07T00:32:00;9.20;;;8.30;;
7807;SDS011;3949;49.254;8.894;2023-04-07T00:34:26;9.57;;;8.57;;
7807;SDS011;3949;49.254;8.894;2023-04-07T00:36:52;9.40;;;8.27;;
7807;SDS011;3949;49.254;8.894;2023-04-07T00:39:18;9.83;;;8.37;;
7807;SDS011;3949;49.254;8.894;2023-04-07T00:41:45;10.67;;;8.73;;
7807;SDS011;3949;49.254;8.894;2023-04-07T00:44:11;10.67;;;8.97;;
7807;SDS011;3949;49.254;8.894;2023-04-07T00:46:38;9.30;;;8.37;;
7807;SDS011;3949;49.254;8.894;2023-04-07T00:49:04;9.47;;;8.47;;
7807;SDS011;3949;49.254;8.894;2023-04-07T00:51:31;9.60;;;8.37;;
7807;SDS011;3949;49.254;8.894;2023-04-07T00:53:57;11.07;;;9.13;;
7807;SDS011;3949;49.254;8.894;2023-04-07T00:56:23;12.00;;;9.00;;
7807;SDS011;3949;49.254;8.894;2023-04-07T00:58:49;10.13;;;9.00;;
7807;SDS011;3949;49.254;8.894;2023-04-07T01:01:20;10.50;;;9.37;;
7807;SDS011;3949;49.254;8.894;2023-04-07T01:03:56;10.47;;;9.37;;
7807;SDS011;3949;49.254;8.894;2023-04-07T01:06:23;11.67;;;9.67;;
7807;SDS011;3949;49.254;8.894;2023-04-07T01:08:52;11.93;;;9.60;;
7807;SDS011;3949;49.254;8.894;2023-04-07T01:13:51;10.37;;;9.27;;
7807;SDS011;3949;49.254;8.894;2023-04-07T01:16:27;11.50;;;9.37;;
7807;SDS011;3949;49.254;8.894;2023-04-07T01:18:56;10.67;;;9.57;;
7807;SDS011;3949;49.254;8.894;2023-04-07T01:21:23;11.90;;;9.50;;
7807;SDS011;3949;49.254;8.894;2023-04-07T01:26:25;10.30;;;9.27;;
7807;SDS011;3949;49.254;8.894;2023-04-07T01:31:27;12.27;;;9.33;;
7807;SDS011;3949;49.254;8.894;2023-04-07T01:33:54;10.07;;;9.07;;
7807;SDS011;3949;49.254;8.894;2023-04-07T01:36:22;11.57;;;9.13;;
7807;SDS011;3949;49.254;8.894;2023-04-07T01:38:48;11.30;;;9.60;;
7807;SDS011;3949;49.254;8.894;2023-04-07T01:41:15;11.83;;;9.50;;
7807;SDS011;3949;49.254;8.894;2023-04-07T01:43:42;10.57;;;8.83;;
7807;SDS011;3949;49.254;8.894;2023-04-07T01:46:08;10.20;;;9.10;;
7807;SDS011;3949;49.254;8.894;2023-04-07T01:48:34;10.67;;;9.33;;
7807;SDS011;3949;49.254;8.894;2023-04-07T01:51:01;10.17;;;9.03;;
7807;SDS011;3949;49.254;8.894;2023-04-07T01:53:28;10.33;;;8.50;;
7807;SDS011;3949;49.254;8.894;2023-04-07T01:55:54;13.33;;;9.80;;
7807;SDS011;3949;49.254;8.894;2023-04-07T01:58:20;9.47;;;8.20;;
7807;SDS011;3949;49.254;8.894;2023-04-07T02:00:47;10.87;;;9.13;;
7807;SDS011;3949;49.254;8.894;2023-04-07T02:03:17;10.17;;;9.07;;
7807;SDS011;3949;49.254;8.894;2023-04-07T02:05:46;11.13;;;9.43;;
7807;SDS011;3949;49.254;8.894;2023-04-07T02:08:12;10.23;;;8.87;;
7807;SDS011;3949;49.254;8.894;2023-04-07T02:10:40;10.80;;;9.20;;
7807;SDS011;3949;49.254;8.894;2023-04-07T02:13:07;10.93;;;8.63;;
7807;SDS011;3949;49.254;8.894;2023-04-07T02:15:35;9.97;;;8.80;;
7807;SDS011;3949;49.254;8.894;2023-04-07T02:18:01;11.70;;;9.80;;
7807;SDS011;3949;49.254;8.894;2023-04-07T02:20:28;11.93;;;8.73;;
7807;SDS011;3949;49.254;8.894;2023-04-07T02:22:55;12.67;;;9.20;;
7807;SDS011;3949;49.254;8.894;2023-04-07T02:25:24;10.83;;;8.57;;
7807;SDS011;3949;49.254;8.894;2023-04-07T02:27:51;10.90;;;9.13;;
7807;SDS011;3949;49.254;8.894;2023-04-07T02:30:17;10.10;;;8.50;;
7807;SDS011;3949;49.254;8.894;2023-04-07T02:32:43;12.30;;;9.57;;
7807;SDS011;3949;49.254;8.894;2023-04-07T02:35:10;9.60;;;8.00;;
7807;SDS011;3949;49.254;8.894;2023-04-07T02:37:36;11.53;;;9.37;;
7807;SDS011;3949;49.254;8.894;2023-04-07T02:40:02;11.53;;;9.77;;
7807;SDS011;3949;49.254;8.894;2023-04-07T02:42:28;13.43;;;9.50;;
7807;SDS011;3949;49.254;8.894;2023-04-07T02:44:54;12.53;;;9.10;;
7807;SDS011;3949;49.254;8.894;2023-04-07T02:47:20;11.90;;;10.57;;
7807;SDS011;3949;49.254;8.894;2023-04-07T02:49:46;10.53;;;8.80;;
7807;SDS011;3949;49.254;8.894;2023-04-07T02:52:12;10.83;;;9.07;;
7807;SDS011;3949;49.254;8.894;2023-04-07T02:54:38;10.90;;;9.20;;
7807;SDS011;3949;49.254;8.894;2023-04-07T02:57:05;11.60;;;9.90;;
7807;SDS011;3949;49.254;8.894;2023-04-07T02:59:31;10.13;;;9.03;;
7807;SDS011;3949;49.254;8.894;2023-04-07T03:01:57;12.50;;;9.90;;
7807;SDS011;3949;49.254;8.894;2023-04-07T03:04:23;13.37;;;10.60;;
7807;SDS011;3949;49.254;8.894;2023-04-07T03:06:48;12.30;;;10.27;;
7807;SDS011;3949;49.254;8.894;2023-04-07T03:09:14;11.63;;;10.43;;
7807;SDS011;3949;49.254;8.894;2023-04-07T03:11:40;14.10;;;11.93;;
7807;SDS011;3949;49.254;8.894;2023-04-07T03:14:07;13.03;;;11.57;;
7807;SDS011;3949;49.254;8.894;2023-04-07T03:16:33;14.43;;;12.17;;
7807;SDS011;3949;49.254;8.894;2023-04-07T03:18:59;13.27;;;11.77;;
7807;SDS011;3949;49.254;8.894;2023-04-07T03:21:25;16.10;;;12.17;;
7807;SDS011;3949;49.254;8.894;2023-04-07T03:23:52;14.87;;;12.50;;
7807;SDS011;3949;49.254;8.894;2023-04-07T03:26:19;15.00;;;12.43;;
7807;SDS011;3949;49.254;8.894;2023-04-07T03:28:45;13.57;;;12.07;;
7807;SDS011;3949;49.254;8.894;2023-04-07T03:31:11;15.43;;;12.43;;
7807;SDS011;3949;49.254;8.894;2023-04-07T03:33:37;13.43;;;11.97;;
7807;SDS011;3949;49.254;8.894;2023-04-07T03:36:03;12.93;;;11.50;;
7807;SDS011;3949;49.254;8.894;2023-04-07T03:38:30;13.77;;;12.27;;
7807;SDS011;3949;49.254;8.894;2023-04-07T03:40:56;14.50;;;12.03;;
7807;SDS011;3949;49.254;8.894;2023-04-07T03:43:22;14.47;;;11.90;;
7807;SDS011;3949;49.254;8.894;2023-04-07T03:45:48;15.40;;;11.83;;
7807;SDS011;3949;49.254;8.894;2023-04-07T03:48:14;17.07;;;11.87;;
7807;SDS011;3949;49.254;8.894;2023-04-07T03:50:41;12.97;;;11.57;;
7807;SDS011;3949;49.254;8.894;2023-04-07T03:53:07;14.07;;;11.77;;
7807;SDS011;3949;49.254;8.894;2023-04-07T03:55:33;13.83;;;11.47;;
7807;SDS011;3949;49.254;8.894;2023-04-07T03:57:59;13.00;;;11.60;;
7807;SDS011;3949;49.254;8.894;2023-04-07T04:00:25;12.73;;;11.43;;
7807;SDS011;3949;49.254;8.894;2023-04-07T04:02:52;13.50;;;10.90;;
7807;SDS011;3949;49.254;8.894;2023-04-07T04:05:18;12.07;;;10.50;;
7807;SDS011;3949;49.254;8.894;2023-04-07T04:07:44;13.53;;;11.27;;
7807;SDS011;3949;49.254;8.894;2023-04-07T04:10:10;13.13;;;11.47;;
7807;SDS011;3949;49.254;8.894;2023-04-07T04:12:36;13.90;;;11.43;;
7807;SDS011;3949;49.254;8.894;2023-04-07T04:15:02;11.43;;;10.23;;
7807;SDS011;3949;49.254;8.894;2023-04-07T04:17:28;13.20;;;11.43;;
7807;SDS011;3949;49.254;8.894;2023-04-07T04:19:54;14.70;;;11.60;;
7807;SDS011;3949;49.254;8.894;2023-04-07T04:22:20;13.43;;;11.60;;
7807;SDS011;3949;49.254;8.894;2023-04-07T04:24:46;13.97;;;11.83;;
7807;SDS011;3949;49.254;8.894;2023-04-07T04:27:12;12.57;;;11.13;;
7807;SDS011;3949;49.254;8.894;2023-04-07T04:29:38;13.07;;;11.50;;
7807;SDS011;3949;49.254;8.894;2023-04-07T04:32:04;12.53;;;11.23;;
7807;SDS011;3949;49.254;8.894;2023-04-07T04:34:30;15.10;;;11.20;;
7807;SDS011;3949;49.254;8.894;2023-04-07T04:36:56;13.67;;;12.10;;
7807;SDS011;3949;49.254;8.894;2023-04-07T04:39:22;14.43;;;11.70;;
7807;SDS011;3949;49.254;8.894;2023-04-07T04:41:48;13.60;;;11.13;;
7807;SDS011;3949;49.254;8.894;2023-04-07T04:44:14;13.53;;;10.80;;
7807;SDS011;3949;49.254;8.894;2023-04-07T04:46:40;12.83;;;10.93;;
7807;SDS011;3949;49.254;8.894;2023-04-07T04:49:06;13.83;;;11.57;;
7807;SDS011;3949;49.254;8.894;2023-04-07T04:51:32;15.13;;;11.27;;
7807;SDS011;3949;49.254;8.894;2023-04-07T04:53:58;12.73;;;10.70;;
7807;SDS011;3949;49.254;8.894;2023-04-07T04:56:24;13.70;;;11.43;;
7807;SDS011;3949;49.254;8.894;2023-04-07T04:58:50;12.10;;;10.30;;
7807;SDS011;3949;49.254;8.894;2023-04-07T05:01:16;13.33;;;10.37;;
7807;SDS011;3949;49.254;8.894;2023-04-07T05:03:42;12.47;;;10.27;;
7807;SDS011;3949;49.254;8.894;2023-04-07T05:06:08;13.80;;;11.00;;
7807;SDS011;3949;49.254;8.894;2023-04-07T05:08:34;12.20;;;10.87;;
7807;SDS011;3949;49.254;8.894;2023-04-07T05:11:00;14.03;;;11.23;;
7807;SDS011;3949;49.254;8.894;2023-04-07T05:13:26;11.50;;;9.93;;
7807;SDS011;3949;49.254;8.894;2023-04-07T05:15:54;13.30;;;11.03;;
7807;SDS011;3949;49.254;8.894;2023-04-07T05:18:20;13.90;;;11.20;;
7807;SDS011;3949;49.254;8.894;2023-04-07T05:20:47;11.87;;;9.50;;
7807;SDS011;3949;49.254;8.894;2023-04-07T05:23:14;12.90;;;11.00;;
7807;SDS011;3949;49.254;8.894;2023-04-07T05:25:40;13.00;;;10.63;;
7807;SDS011;3949;49.254;8.894;2023-04-07T05:28:06;11.93;;;10.10;;
7807;SDS011;3949;49.254;8.894;2023-04-07T05:30:32;12.93;;;10.80;;
7807;SDS011;3949;49.254;8.894;2023-04-07T05:32:58;12.57;;;10.90;;
7807;SDS011;3949;49.254;8.894;2023-04-07T05:35:24;13.00;;;10.60;;
7807;SDS011;3949;49.254;8.894;2023-04-07T05:37:50;13.90;;;10.50;;
7807;SDS011;3949;49.254;8.894;2023-04-07T05:40:16;12.00;;;10.60;;
7807;SDS011;3949;49.254;8.894;2023-04-07T05:42:42;13.53;;;11.00;;
7807;SDS011;3949;49.254;8.894;2023-04-07T05:45:08;13.03;;;11.17;;
7807;SDS011;3949;49.254;8.894;2023-04-07T05:47:35;12.47;;;9.97;;
7807;SDS011;3949;49.254;8.894;2023-04-07T05:50:01;13.27;;;11.33;;
7807;SDS011;3949;49.254;8.894;2023-04-07T05:52:27;12.33;;;11.03;;
7807;SDS011;3949;49.254;8.894;2023-04-07T05:54:53;13.63;;;11.23;;
7807;SDS011;3949;49.254;8.894;2023-04-07T05:57:19;14.53;;;11.50;;
7807;SDS011;3949;49.254;8.894;2023-04-07T05:59:45;14.20;;;10.77;;
7807;SDS011;3949;49.254;8.894;2023-04-07T06:02:11;11.63;;;9.93;;
7807;SDS011;3949;49.254;8.894;2023-04-07T06:04:37;12.97;;;11.20;;
7807;SDS011;3949;49.254;8.894;2023-04-07T06:07:04;12.37;;;10.13;;
7807;SDS011;3949;49.254;8.894;2023-04-07T06:09:30;11.70;;;10.23;;
7807;SDS011;3949;49.254;8.894;2023-04-07T06:11:56;12.30;;;10.63;;
7807;SDS011;3949;49.254;8.894;2023-04-07T06:14:22;13.33;;;9.83;;
7807;SDS011;3949;49.254;8.894;2023-04-07T06:16:48;10.70;;;9.47;;
7807;SDS011;3949;49.254;8.894;2023-04-07T06:19:14;11.07;;;8.73;;
7807;SDS011;3949;49.254;8.894;2023-04-07T06:21:40;11.17;;;9.67;;
7807;SDS011;3949;49.254;8.894;2023-04-07T06:24:06;10.50;;;9.40;;
7807;SDS011;3949;49.254;8.894;2023-04-07T06:26:32;10.33;;;9.23;;
7807;SDS011;3949;49.254;8.894;2023-04-07T06:28:58;10.57;;;9.50;;
7807;SDS011;3949;49.254;8.894;2023-04-07T06:31:24;10.43;;;9.30;;
7807;SDS011;3949;49.254;8.894;2023-04-07T06:33:51;11.07;;;9.87;;
7807;SDS011;3949;49.254;8.894;2023-04-07T06:36:17;10.80;;;9.70;;
7807;SDS011;3949;49.254;8.894;2023-04-07T06:38:43;12.00;;;10.40;;
7807;SDS011;3949;49.254;8.894;2023-04-07T06:41:09;12.57;;;10.13;;
7807;SDS011;3949;49.254;8.894;2023-04-07T06:43:40;13.17;;;9.93;;
7807;SDS011;3949;49.254;8.894;2023-04-07T06:46:06;10.00;;;8.90;;
7807;SDS011;3949;49.254;8.894;2023-04-07T06:48:32;10.60;;;8.97;;
7807;SDS011;3949;49.254;8.894;2023-04-07T06:50:58;11.03;;;9.93;;
7807;SDS011;3949;49.254;8.894;2023-04-07T06:53:24;11.20;;;9.70;;
7807;SDS011;3949;49.254;8.894;2023-04-07T06:55:50;10.67;;;8.87;;
7807;SDS011;3949;49.254;8.894;2023-04-07T06:58:16;10.33;;;9.23;;
7807;SDS011;3949;49.254;8.894;2023-04-07T07:00:42;10.10;;;8.70;;
7807;SDS011;3949;49.254;8.894;2023-04-07T07:03:08;9.07;;;8.13;;
7807;SDS011;3949;49.254;8.894;2023-04-07T07:05:34;9.70;;;8.70;;
7807;SDS011;3949;49.254;8.894;2023-04-07T07:08:00;8.70;;;7.80;;
7807;SDS011;3949;49.254;8.894;2023-04-07T07:10:26;10.00;;;7.73;;
7807;SDS011;3949;49.254;8.894;2023-04-07T07:12:52;9.23;;;8.33;;
7807;SDS011;3949;49.254;8.894;2023-04-07T07:15:18;9.00;;;7.57;;
7807;SDS011;3949;49.254;8.894;2023-04-07T07:17:44;7.90;;;7.10;;
7807;SDS011;3949;49.254;8.894;2023-04-07T07:20:10;7.53;;;6.83;;
7807;SDS011;3949;49.254;8.894;2023-04-07T07:22:36;9.73;;;7.23;;
7807;SDS011;3949;49.254;8.894;2023-04-07T07:25:02;7.77;;;7.03;;
7807;SDS011;3949;49.254;8.894;2023-04-07T07:27:28;7.47;;;6.73;;
7807;SDS011;3949;49.254;8.894;2023-04-07T07:29:54;8.30;;;7.17;;
7807;SDS011;3949;49.254;8.894;2023-04-07T07:32:20;9.13;;;7.40;;
7807;SDS011;3949;49.254;8.894;2023-04-07T07:34:46;7.17;;;6.43;;
7807;SDS011;3949;49.254;8.894;2023-04-07T07:37:12;6.63;;;5.90;;
7807;SDS011;3949;49.254;8.894;2023-04-07T07:39:38;7.70;;;6.77;;
7807;SDS011;3949;49.254;8.894;2023-04-07T07:42:04;6.93;;;6.23;;
7807;SDS011;3949;49.254;8.894;2023-04-07T07:44:30;7.80;;;7.00;;
7807;SDS011;3949;49.254;8.894;2023-04-07T07:46:56;8.23;;;7.43;;
7807;SDS011;3949;49.254;8.894;2023-04-07T07:49:22;7.33;;;6.60;;
7807;SDS011;3949;49.254;8.894;2023-04-07T07:51:48;7.40;;;6.80;;
7807;SDS011;3949;49.254;8.894;2023-04-07T07:54:14;7.60;;;6.77;;
7807;SDS011;3949;49.254;8.894;2023-04-07T07:56:40;6.70;;;6.10;;
7807;SDS011;3949;49.254;8.894;2023-04-07T07:59:06;7.07;;;6.33;;
7807;SDS011;3949;49.254;8.894;2023-04-07T08:01:32;7.13;;;6.43;;
7807;SDS011;3949;49.254;8.894;2023-04-07T08:03:58;6.40;;;5.80;;
7807;SDS011;3949;49.254;8.894;2023-04-07T08:06:24;9.00;;;6.47;;
7807;SDS011;3949;49.254;8.894;2023-04-07T08:08:51;6.83;;;6.13;;
7807;SDS011;3949;49.254;8.894;2023-04-07T08:11:17;7.43;;;6.73;;
7807;SDS011;3949;49.254;8.894;2023-04-07T08:13:43;15.20;;;11.77;;
7807;SDS011;3949;49.254;8.894;2023-04-07T08:16:10;8.00;;;6.43;;
7807;SDS011;3949;49.254;8.894;2023-04-07T08:18:36;6.43;;;5.83;;
7807;SDS011;3949;49.254;8.894;2023-04-07T08:21:03;6.17;;;5.43;;
7807;SDS011;3949;49.254;8.894;2023-04-07T08:23:29;6.63;;;5.40;;
7807;SDS011;3949;49.254;8.894;2023-04-07T08:25:55;6.60;;;5.30;;
7807;SDS011;3949;49.254;8.894;2023-04-07T08:28:22;6.30;;;5.70;;
7807;SDS011;3949;49.254;8.894;2023-04-07T08:30:48;5.90;;;5.30;;
7807;SDS011;3949;49.254;8.894;2023-04-07T08:33:14;6.63;;;6.03;;
7807;SDS011;3949;49.254;8.894;2023-04-07T08:35:40;10.07;;;7.57;;
7807;SDS011;3949;49.254;8.894;2023-04-07T08:38:06;5.67;;;5.23;;
7807;SDS011;3949;49.254;8.894;2023-04-07T08:40:33;5.43;;;4.50;;
7807;SDS011;3949;49.254;8.894;2023-04-07T08:42:59;6.80;;;4.63;;
7807;SDS011;3949;49.254;8.894;2023-04-07T08:45:26;9.40;;;8.40;;
7807;SDS011;3949;49.254;8.894;2023-04-07T08:47:54;6.27;;;5.03;;
7807;SDS011;3949;49.254;8.894;2023-04-07T08:50:25;6.03;;;5.13;;
7807;SDS011;3949;49.254;8.894;2023-04-07T08:52:55;6.03;;;5.43;;
7807;SDS011;3949;49.254;8.894;2023-04-07T08:55:21;6.70;;;6.00;;
7807;SDS011;3949;49.254;8.894;2023-04-07T08:57:48;6.47;;;5.97;;
7807;SDS011;3949;49.254;8.894;2023-04-07T09:00:14;6.77;;;6.07;;
7807;SDS011;3949;49.254;8.894;2023-04-07T09:02:41;17.83;;;16.20;;
7807;SDS011;3949;49.254;8.894;2023-04-07T09:05:12;10.97;;;9.97;;
7807;SDS011;3949;49.254;8.894;2023-04-07T09:07:38;23.40;;;21.00;;
7807;SDS011;3949;49.254;8.894;2023-04-07T09:10:05;23.57;;;21.30;;
7807;SDS011;3949;49.254;8.894;2023-04-07T09:12:31;11.00;;;10.00;;
7807;SDS011;3949;49.254;8.894;2023-04-07T09:14:57;24.23;;;21.93;;
7807;SDS011;3949;49.254;8.894;2023-04-07T09:17:24;9.90;;;9.00;;
7807;SDS011;3949;49.254;8.894;2023-04-07T09:19:51;13.53;;;12.37;;
7807;SDS011;3949;49.254;8.894;2023-04-07T09:25:08;7.93;;;5.83;;
7807;SDS011;3949;49.254;8.894;2023-04-07T09:27:34;7.03;;;6.43;;
7807;SDS011;3949;49.254;8.894;2023-04-07T09:30:09;5.30;;;4.80;;
7807;SDS011;3949;49.254;8.894;2023-04-07T09:32:36;5.47;;;5.07;;
7807;SDS011;3949;49.254;8.894;2023-04-07T09:35:02;9.90;;;9.20;;
7807;SDS011;3949;49.254;8.894;2023-04-07T09:37:28;9.47;;;8.77;;
7807;SDS011;3949;49.254;8.894;2023-04-07T09:39:54;9.67;;;8.67;;
7807;SDS011;3949;49.254;8.894;2023-04-07T09:42:20;5.83;;;5.33;;
7807;SDS011;3949;49.254;8.894;2023-04-07T09:44:46;4.07;;;3.67;;
7807;SDS011;3949;49.254;8.894;2023-04-07T09:47:12;9.67;;;8.77;;
7807;SDS011;3949;49.254;8.894;2023-04-07T09:49:51;8.80;;;6.83;;
7807;SDS011;3949;49.254;8.894;2023-04-07T09:52:18;7.00;;;6.07;;
7807;SDS011;3949;49.254;8.894;2023-04-07T09:54:44;8.20;;;6.87;;
7807;SDS011;3949;49.254;8.894;2023-04-07T09:57:11;6.13;;;5.37;;
7807;SDS011;3949;49.254;8.894;2023-04-07T09:59:38;4.53;;;4.13;;
7807;SDS011;3949;49.254;8.894;2023-04-07T10:02:07;6.70;;;6.10;;
7807;SDS011;3949;49.254;8.894;2023-04-07T10:04:33;9.03;;;8.17;;
7807;SDS011;3949;49.254;8.894;2023-04-07T10:06:59;5.40;;;4.70;;
7807;SDS011;3949;49.254;8.894;2023-04-07T10:09:27;25.90;;;20.83;;
7807;SDS011;3949;49.254;8.894;2023-04-07T10:11:54;4.33;;;3.50;;
7807;SDS011;3949;49.254;8.894;2023-04-07T10:14:27;6.73;;;5.40;;
7807;SDS011;3949;49.254;8.894;2023-04-07T10:16:54;17.00;;;15.40;;
7807;SDS011;3949;49.254;8.894;2023-04-07T10:19:21;4.73;;;4.20;;
7807;SDS011;3949;49.254;8.894;2023-04-07T10:21:49;5.20;;;4.30;;
7807;SDS011;3949;49.254;8.894;2023-04-07T10:26:45;4.73;;;2.93;;
7807;SDS011;3949;49.254;8.894;2023-04-07T10:29:12;4.30;;;3.40;;
7807;SDS011;3949;49.254;8.894;2023-04-07T10:31:39;4.07;;;3.33;;
7807;SDS011;3949;49.254;8.894;2023-04-07T10:34:05;4.70;;;3.17;;
7807;SDS011;3949;49.254;8.894;2023-04-07T10:36:31;2.63;;;2.43;;
7807;SDS011;3949;49.254;8.894;2023-04-07T10:44:00;5.23;;;3.13;;
7807;SDS011;3949;49.254;8.894;2023-04-07T10:49:16;5.40;;;4.30;;
7807;SDS011;3949;49.254;8.894;2023-04-07T10:51:42;4.77;;;4.37;;
7807;SDS011;3949;49.254;8.894;2023-04-07T10:54:14;6.27;;;4.63;;
7807;SDS011;3949;49.254;8.894;2023-04-07T10:59:26;5.00;;;4.20;;
7807;SDS011;3949;49.254;8.894;2023-04-07T11:02:53;4.20;;;3.80;;
7807;SDS011;3949;49.254;8.894;2023-04-07T11:04:48;5.07;;;3.73;;
7807;SDS011;3949;49.254;8.894;2023-04-07T11:07:14;4.73;;;4.20;;
7807;SDS011;3949;49.254;8.894;2023-04-07T11:09:43;4.10;;;3.40;;
7807;SDS011;3949;49.254;8.894;2023-04-07T11:12:22;4.97;;;3.30;;
7807;SDS011;3949;49.254;8.894;2023-04-07T11:14:48;3.80;;;3.40;;
7807;SDS011;3949;49.254;8.894;2023-04-07T11:17:14;4.20;;;3.23;;
7807;SDS011;3949;49.254;8.894;2023-04-07T11:19:49;4.40;;;3.53;;
7807;SDS011;3949;49.254;8.894;2023-04-07T11:22:16;4.30;;;3.60;;
7807;SDS011;3949;49.254;8.894;2023-04-07T11:24:44;5.53;;;4.83;;
7807;SDS011;3949;49.254;8.894;2023-04-07T11:27:14;4.97;;;4.20;;
7807;SDS011;3949;49.254;8.894;2023-04-07T11:29:40;3.80;;;3.50;;
7807;SDS011;3949;49.254;8.894;2023-04-07T11:32:06;3.90;;;3.43;;
7807;SDS011;3949;49.254;8.894;2023-04-07T11:34:34;4.10;;;3.57;;
7807;SDS011;3949;49.254;8.894;2023-04-07T11:39:50;5.30;;;3.40;;
7807;SDS011;3949;49.254;8.894;2023-04-07T11:42:27;4.93;;;3.20;;
7807;SDS011;3949;49.254;8.894;2023-04-07T11:44:55;3.47;;;2.80;;
7807;SDS011;3949;49.254;8.894;2023-04-07T11:47:21;6.43;;;4.13;;
7807;SDS011;3949;49.254;8.894;2023-04-07T11:49:58;3.50;;;3.20;;
7807;SDS011;3949;49.254;8.894;2023-04-07T11:52:23;3.83;;;3.30;;
7807;SDS011;3949;49.254;8.894;2023-04-07T11:54:50;4.10;;;3.13;;
7807;SDS011;3949;49.254;8.894;2023-04-07T11:57:27;3.70;;;3.07;;
7807;SDS011;3949;49.254;8.894;2023-04-07T12:00:06;3.67;;;2.87;;
7807;SDS011;3949;49.254;8.894;2023-04-07T12:02:32;5.33;;;3.30;;
7807;SDS011;3949;49.254;8.894;2023-04-07T12:04:59;4.30;;;3.37;;
7807;SDS011;3949;49.254;8.894;2023-04-07T12:07:25;4.03;;;3.63;;
7807;SDS011;3949;49.254;8.894;2023-04-07T12:09:52;6.37;;;3.50;;
7807;SDS011;3949;49.254;8.894;2023-04-07T12:12:24;3.53;;;3.20;;
7807;SDS011;3949;49.254;8.894;2023-04-07T12:14:51;3.80;;;3.37;;
7807;SDS011;3949;49.254;8.894;2023-04-07T12:17:24;5.17;;;3.70;;
7807;SDS011;3949;49.254;8.894;2023-04-07T12:19:50;3.83;;;2.93;;
7807;SDS011;3949;49.254;8.894;2023-04-07T12:22:16;6.30;;;3.27;;
7807;SDS011;3949;49.254;8.894;2023-04-07T12:24:42;3.77;;;3.00;;
7807;SDS011;3949;49.254;8.894;2023-04-07T12:27:08;4.17;;;3.30;;
7807;SDS011;3949;49.254;8.894;2023-04-07T12:29:35;3.80;;;3.40;;
7807;SDS011;3949;49.254;8.894;2023-04-07T12:32:04;3.20;;;2.90;;
7807;SDS011;3949;49.254;8.894;2023-04-07T12:34:30;4.27;;;2.90;;
7807;SDS011;3949;49.254;8.894;2023-04-07T12:36:56;2.90;;;2.60;;
7807;SDS011;3949;49.254;8.894;2023-04-07T12:39:22;4.77;;;2.87;;
7807;SDS011;3949;49.254;8.894;2023-04-07T12:41:48;3.57;;;2.47;;
7807;SDS011;3949;49.254;8.894;2023-04-07T12:44:17;3.90;;;2.67;;
7807;SDS011;3949;49.254;8.894;2023-04-07T12:46:43;4.20;;;2.67;;
7807;SDS011;3949;49.254;8.894;2023-04-07T12:49:09;2.60;;;2.40;;
7807;SDS011;3949;49.254;8.894;2023-04-07T12:51:35;2.60;;;2.27;;
7807;SDS011;3949;49.254;8.894;2023-04-07T12:54:02;4.90;;;4.40;;
7807;SDS011;3949;49.254;8.894;2023-04-07T12:56:28;2.63;;;2.20;;
7807;SDS011;3949;49.254;8.894;2023-04-07T12:58:54;3.90;;;2.17;;
7807;SDS011;3949;49.254;8.894;2023-04-07T13:01:20;2.27;;;2.07;;
7807;SDS011;3949;49.254;8.894;2023-04-07T13:03:46;2.60;;;2.30;;
7807;SDS011;3949;49.254;8.894;2023-04-07T13:06:12;4.73;;;4.10;;
7807;SDS011;3949;49.254;8.894;2023-04-07T13:08:39;2.43;;;2.20;;
7807;SDS011;3949;49.254;8.894;2023-04-07T13:11:05;3.10;;;2.70;;
7807;SDS011;3949;49.254;8.894;2023-04-07T13:13:31;2.73;;;2.47;;
7807;SDS011;3949;49.254;8.894;2023-04-07T13:15:57;2.57;;;2.37;;
7807;SDS011;3949;49.254;8.894;2023-04-07T13:18:23;2.90;;;2.70;;
7807;SDS011;3949;49.254;8.894;2023-04-07T13:20:50;5.67;;;4.73;;
7807;SDS011;3949;49.254;8.894;2023-04-07T13:23:16;3.27;;;2.63;;
7807;SDS011;3949;49.254;8.894;2023-04-07T13:25:42;3.40;;;2.87;;
7807;SDS011;3949;49.254;8.894;2023-04-07T13:28:08;3.00;;;2.60;;
7807;SDS011;3949;49.254;8.894;2023-04-07T13:30:34;4.13;;;3.30;;
7807;SDS011;3949;49.254;8.894;2023-04-07T13:33:00;2.60;;;2.30;;
7807;SDS011;3949;49.254;8.894;2023-04-07T13:35:26;3.20;;;2.90;;
7807;SDS011;3949;49.254;8.894;2023-04-07T13:37:54;2.57;;;2.37;;
7807;SDS011;3949;49.254;8.894;2023-04-07T13:40:20;2.40;;;2.20;;
7807;SDS011;3949;49.254;8.894;2023-04-07T13:42:46;2.43;;;2.23;;
7807;SDS011;3949;49.254;8.894;2023-04-07T13:45:12;2.60;;;2.40;;
7807;SDS011;3949;49.254;8.894;2023-04-07T13:47:38;2.33;;;2.17;;
7807;SDS011;3949;49.254;8.894;2023-04-07T13:50:04;2.87;;;2.40;;
7807;SDS011;3949;49.254;8.894;2023-04-07T13:52:30;2.60;;;2.40;;
7807;SDS011;3949;49.254;8.894;2023-04-07T13:54:59;1.90;;;1.80;;
7807;SDS011;3949;49.254;8.894;2023-04-07T13:57:25;2.90;;;2.60;;
7807;SDS011;3949;49.254;8.894;2023-04-07T13:59:51;3.10;;;2.80;;
7807;SDS011;3949;49.254;8.894;2023-04-07T14:02:18;1.93;;;1.60;;
7807;SDS011;3949;49.254;8.894;2023-04-07T14:04:44;1.37;;;1.10;;
7807;SDS011;3949;49.254;8.894;2023-04-07T14:07:10;1.90;;;1.00;;
7807;SDS011;3949;49.254;8.894;2023-04-07T14:09:36;1.43;;;1.17;;
7807;SDS011;3949;49.254;8.894;2023-04-07T14:12:02;2.80;;;1.47;;
7807;SDS011;3949;49.254;8.894;2023-04-07T14:14:29;2.17;;;1.97;;
7807;SDS011;3949;49.254;8.894;2023-04-07T14:16:55;3.50;;;3.10;;
7807;SDS011;3949;49.254;8.894;2023-04-07T14:19:21;2.20;;;2.00;;
7807;SDS011;3949;49.254;8.894;2023-04-07T14:21:48;2.53;;;2.33;;
7807;SDS011;3949;49.254;8.894;2023-04-07T14:24:14;2.60;;;2.40;;
7807;SDS011;3949;49.254;8.894;2023-04-07T14:26:41;2.47;;;2.33;;
7807;SDS011;3949;49.254;8.894;2023-04-07T14:29:07;2.13;;;1.93;;
7807;SDS011;3949;49.254;8.894;2023-04-07T14:31:33;2.50;;;2.30;;
7807;SDS011;3949;49.254;8.894;2023-04-07T14:33:59;2.30;;;2.10;;
7807;SDS011;3949;49.254;8.894;2023-04-07T14:36:25;3.07;;;2.07;;
7807;SDS011;3949;49.254;8.894;2023-04-07T14:38:51;2.60;;;2.40;;
7807;SDS011;3949;49.254;8.894;2023-04-07T14:41:18;2.03;;;1.93;;
7807;SDS011;3949;49.254;8.894;2023-04-07T14:43:44;2.20;;;2.07;;
7807;SDS011;3949;49.254;8.894;2023-04-07T14:46:12;2.30;;;2.10;;
7807;SDS011;3949;49.254;8.894;2023-04-07T14:48:39;2.40;;;2.20;;
7807;SDS011;3949;49.254;8.894;2023-04-07T14:51:11;2.70;;;2.03;;
7807;SDS011;3949;49.254;8.894;2023-04-07T14:53:37;3.33;;;2.20;;
7807;SDS011;3949;49.254;8.894;2023-04-07T14:56:04;2.93;;;2.70;;
7807;SDS011;3949;49.254;8.894;2023-04-07T14:58:30;3.47;;;2.83;;
7807;SDS011;3949;49.254;8.894;2023-04-07T15:00:56;2.50;;;2.30;;
7807;SDS011;3949;49.254;8.894;2023-04-07T15:03:22;2.50;;;2.30;;
7807;SDS011;3949;49.254;8.894;2023-04-07T15:05:48;2.47;;;2.27;;
7807;SDS011;3949;49.254;8.894;2023-04-07T15:08:14;4.27;;;3.60;;
7807;SDS011;3949;49.254;8.894;2023-04-07T15:10:40;3.27;;;2.20;;
7807;SDS011;3949;49.254;8.894;2023-04-07T15:13:06;3.47;;;3.00;;
7807;SDS011;3949;49.254;8.894;2023-04-07T15:15:32;3.10;;;2.90;;
7807;SDS011;3949;49.254;8.894;2023-04-07T15:17:58;2.53;;;2.20;;
7807;SDS011;3949;49.254;8.894;2023-04-07T15:20:24;2.20;;;2.00;;
7807;SDS011;3949;49.254;8.894;2023-04-07T15:22:50;1.70;;;1.60;;
7807;SDS011;3949;49.254;8.894;2023-04-07T15:25:16;2.43;;;2.00;;
7807;SDS011;3949;49.254;8.894;2023-04-07T15:27:42;1.70;;;1.60;;